METAR Data
IDs: Format: Raw Decoded Include TAF

Data at: 0554 UTC 24 Sep 2018

KOZW 240535Z AUTO 07003KT 10SM CLR 11/10 A3023 RMK AO2 T01140097
KOZW 240515Z AUTO 09004KT 10SM CLR 12/10 A3023 RMK AO2 T01160096
KOZW 240455Z AUTO 09003KT 10SM CLR 12/10 A3023 RMK AO2 T01200097
KOZW 240435Z AUTO 08003KT 10SM CLR 12/10 A3023 RMK AO2 T01200095
KOZW 240415Z AUTO 09004KT 10SM CLR 12/10 A3023 RMK AO2 T01210095
KOZW 240355Z AUTO 08005KT 10SM CLR 13/10 A3022 RMK AO2 T01250095
KOZW 240335Z AUTO 07005KT 10SM CLR 12/09 A3022 RMK AO2 T01230094
KOZW 240315Z AUTO 06005KT 10SM CLR 12/10 A3023 RMK AO2 T01230095
KOZW 240255Z AUTO 08004KT 10SM CLR 13/09 A3023 RMK AO2 T01250093
KOZW 240235Z AUTO 07005KT 10SM CLR 13/09 A3023 RMK AO2 T01270085
KOZW 240215Z AUTO 07004KT 10SM CLR 13/08 A3023 RMK AO2 T01300080
KOZW 240155Z AUTO 07004KT 10SM CLR 13/08 A3023 RMK AO2 T01250081
KOZW 240135Z AUTO 07003KT 10SM CLR 13/09 A3022 RMK AO2 T01300085
KOZW 240115Z AUTO 08003KT 10SM CLR 14/08 A3022 RMK AO2 T01400080
KOZW 240055Z AUTO 08003KT 10SM CLR 15/08 A3021 RMK AO2 T01470075
KOZW 240035Z AUTO 09004KT 10SM CLR 16/07 A3020 RMK AO2 T01560072
KOZW 240015Z AUTO 10005KT 10SM CLR 16/07 A3019 RMK AO2 T01620073
KOZW 232355Z AUTO 10005KT 10SM CLR 17/08 A3019 RMK AO2 60001 T01650076 10208 20165
KOZW 232335Z AUTO 10005KT 10SM CLR 17/08 A3019 RMK AO2 T01700078
KOZW 232315Z AUTO 11006KT 10SM CLR 18/08 A3019 RMK AO2 T01820079
KOZW 232255Z AUTO 10005KT 10SM CLR 19/08 A3018 RMK AO2 T01890084
KOZW 232235Z AUTO 10005KT 10SM CLR 20/08 A3018 RMK AO2 T01950082
KOZW 232215Z AUTO 12004KT 10SM CLR 20/08 A3018 RMK AO2 T02000080
KOZW 232155Z AUTO 09007KT 10SM CLR 20/08 A3018 RMK AO2 T02040079
KOZW 232135Z AUTO 10005KT 10SM CLR 21/08 A3017 RMK AO2 T02050083
KOZW 232115Z AUTO 10006KT 10SM CLR 21/09 A3017 RMK AO2 T02070092
KOZW 232055Z AUTO 14006KT 10SM CLR 21/08 A3017 RMK AO2 60001 T02060083
KOZW 232035Z AUTO 14005KT 10SM CLR 21/09 A3017 RMK AO2 T02050086
KOZW 232015Z AUTO 07003KT 10SM CLR 21/09 A3017 RMK AO2 T02060086
KOZW 231955Z AUTO 12006KT 10SM CLR 21/09 A3017 RMK AO2 T02050090
KOZW 231935Z AUTO 07004KT 10SM CLR 21/09 A3018 RMK AO2 T02050088
KOZW 231915Z AUTO 10006KT 10SM CLR 20/09 A3018 RMK AO2 T02030087
KOZW 231855Z AUTO 12004KT 10SM CLR 20/09 A3019 RMK AO2 P0001 T02040086
KOZW 231835Z AUTO 17006KT 10SM CLR 20/09 A3020 RMK AO2 T02000090
KOZW 231815Z AUTO 11004KT 10SM CLR 20/09 A3020 RMK AO2 T01970088
KOZW 231755Z AUTO 10003KT 10SM CLR 20/09 A3021 RMK AO2 T01960086 10197 20059
KOZW 231735Z AUTO 15003KT 10SM CLR 19/09 A3021 RMK AO2 T01930089
KOZW 231715Z AUTO 13004KT 10SM CLR 19/09 A3022 RMK AO2 T01870089
KOZW 231655Z AUTO 08006KT 060V150 10SM CLR 19/10 A3022 RMK AO2 T01890095
KOZW 231635Z AUTO 05004KT 10SM CLR 18/09 A3023 RMK AO2 T01810089
KOZW 231615Z AUTO 00000KT 10SM CLR 18/09 A3024 RMK AO2 T01750092
KOZW 231555Z AUTO 08005KT 10SM CLR 17/10 A3024 RMK AO2 T01730095
KOZW 231535Z AUTO 11006KT 10SM CLR 17/10 A3025 RMK AO2 T01690095
KOZW 231515Z AUTO 00000KT 10SM CLR 16/10 A3025 RMK AO2 T01630098
KOZW 231455Z AUTO 12004KT 10SM CLR 16/10 A3025 RMK AO2 T01590101
KOZW 231435Z AUTO 09004KT 10SM CLR 15/09 A3025 RMK AO2 T01530094
KOZW 231415Z AUTO 09004KT 10SM CLR 15/10 A3025 RMK AO2 T01450096
KOZW 231355Z AUTO 07003KT 10SM CLR 13/10 A3025 RMK AO2 T01340098
KOZW 231335Z AUTO 00000KT 10SM CLR 12/10 A3025 RMK AO2 T01220095
KOZW 231315Z AUTO 00000KT 10SM CLR 11/09 A3025 RMK AO2 T01100092
KOZW 231255Z AUTO 00000KT 10SM CLR 10/09 A3025 RMK AO2 T00960089
KOZW 231235Z AUTO 00000KT 7SM CLR 08/08 A3024 RMK AO2 T00810080
KOZW 231215Z AUTO 00000KT 7SM CLR 07/07 A3023 RMK AO2 T00690069
KOZW 231155Z AUTO 00000KT 7SM CLR 06/06 A3023 RMK AO2 70001 T00570056 10078 20056
KOZW 231135Z AUTO 00000KT 7SM CLR 06/06 A3023 RMK AO2 T00600060
KOZW 231115Z AUTO 00000KT 10SM CLR 06/06 A3022 RMK AO2 T00600059
KOZW 231055Z AUTO 00000KT 7SM CLR 06/06 A3023 RMK AO2 T00580057
KOZW 231035Z AUTO 00000KT 10SM CLR 06/06 A3023 RMK AO2 T00570056
KOZW 231015Z AUTO 00000KT 10SM CLR 06/06 A3023 RMK AO2 T00580057
KOZW 230955Z AUTO 00000KT 7SM CLR 06/06 A3023 RMK AO2 T00600060
KOZW 230936Z AUTO 00000KT 7SM CLR 06/06 A3023 RMK AO2 T00610060
KOZW 230915Z AUTO 00000KT 7SM CLR 06/06 A3022 RMK AO2 T00640063
KOZW 230855Z AUTO 00000KT 06/06 A3021 RMK AO2 T00620061 PWINO
KOZW 230835Z AUTO 00000KT 7SM CLR 07/06 A3020 RMK AO2 T00650063
KOZW 230815Z AUTO 00000KT 10SM CLR 07/07 A3020 RMK AO2 T00700067
KOZW 230755Z AUTO 00000KT 10SM CLR 08/07 A3021 RMK AO2 T00770073
KOZW 230735Z AUTO 00000KT 10SM CLR 08/07 A3021 RMK AO2 T00760074
KOZW 230715Z AUTO 00000KT 10SM CLR 07/07 A3022 RMK AO2 T00730070
KOZW 230655Z AUTO 00000KT 10SM CLR 07/07 A3022 RMK AO2 T00740071
KOZW 230635Z AUTO 00000KT 10SM CLR 07/07 A3022 RMK AO2 T00690066
KOZW 230615Z AUTO 00000KT 10SM CLR 08/07 A3022 RMK AO2 T00750071
KOZW 230555Z AUTO 00000KT 10SM CLR 08/07 A3022 RMK AO2 60001 T00750071 10135 20075 401700075
KOZW 230535Z AUTO 00000KT 10SM CLR 08/08 A3023 RMK AO2 T00810076
KOZW 230515Z AUTO 00000KT 10SM CLR 08/08 A3023 RMK AO2 T00820077
KOZW 230455Z AUTO 00000KT 10SM CLR 08/07 A3023 RMK AO2 P0001 T00790073
KOZW 230436Z AUTO 00000KT 10SM CLR 08/08 A3023 RMK AO2 T00830075
KOZW 230415Z AUTO 00000KT 10SM CLR 08/08 A3023 RMK AO2 T00840077
KOZW 230355Z AUTO 00000KT 10SM CLR 09/08 A3023 RMK AO2 T00850076
KOZW 230335Z AUTO 00000KT 10SM CLR 09/08 A3023 RMK AO2 T00880078
KOZW 230315Z AUTO 00000KT 10SM CLR 09/08 A3023 RMK AO2 T00910081
KOZW 230255Z AUTO 00000KT 10SM CLR 10/08 A3023 RMK AO2 T00970082
KOZW 230235Z AUTO 00000KT 10SM CLR 10/08 A3023 RMK AO2 T01020083
KOZW 230215Z AUTO 00000KT 10SM CLR 10/08 A3024 RMK AO2 T01000081
KOZW 230155Z AUTO 00000KT 10SM CLR 11/08 A3024 RMK AO2 T01050083
KOZW 230135Z AUTO 00000KT 10SM CLR 11/09 A3024 RMK AO2 T01130085
KOZW 230115Z AUTO 00000KT 10SM CLR 11/08 A3024 RMK AO2 T01100082
KOZW 230055Z AUTO 00000KT 10SM CLR 12/08 A3024 RMK AO2 T01200080
KOZW 230035Z AUTO 18003KT 10SM CLR 13/08 A3024 RMK AO2 T01300079
KOZW 230015Z AUTO 00000KT 10SM CLR 13/08 A3024 RMK AO2 T01330078
KOZW 222356Z AUTO 18003KT 10SM CLR 13/08 A3024 RMK AO2 T01320077 10170 20132
KOZW 222335Z AUTO 18004KT 10SM CLR 14/08 A3024 RMK AO2 T01380076
KOZW 222315Z AUTO 17004KT 10SM CLR 14/08 A3024 RMK AO2 T01430077
KOZW 222255Z AUTO 16003KT 10SM CLR 15/08 A3025 RMK AO2 T01500077
KOZW 222235Z AUTO 16006KT 7SM CLR 16/08 A3025 RMK AO2 T01550078
KOZW 222215Z AUTO 19004KT 10SM SCT038 16/08 A3024 RMK AO2 T01600076
KOZW 222155Z AUTO 14005KT 10SM SCT038 16/08 A3024 RMK AO2 T01630078
KOZW 222135Z AUTO 13003KT 10SM CLR 16/07 A3025 RMK AO2 T01600072
KOZW 222115Z AUTO 12003KT 10SM SCT041 16/07 A3025 RMK AO2 T01610074
KOZW 222055Z AUTO 11004KT 10SM BKN041 16/08 A3025 RMK AO2 T01620075
KOZW 222035Z AUTO 00000KT 10SM BKN041 16/07 A3026 RMK AO2 T01600074
KOZW 222015Z AUTO 00000KT 10SM CLR 16/07 A3026 RMK AO2 T01630069
KOZW 221955Z AUTO 10003KT 10SM BKN040 16/07 A3026 RMK AO2 T01630070
KOZW 221935Z AUTO 10004KT 10SM OVC040 17/07 A3027 RMK AO2 T01660073
KOZW 221915Z AUTO 16003KT 10SM BKN040 16/08 A3028 RMK AO2 T01630076
KOZW 221855Z AUTO 00000KT 10SM SCT040 16/07 A3028 RMK AO2 T01600073
KOZW 221835Z AUTO 00000KT 10SM SCT040 16/07 A3030 RMK AO2 T01600071
KOZW 221815Z AUTO 00000KT 10SM SCT036 16/07 A3030 RMK AO2 T01590067
KOZW 221755Z AUTO 09006KT 10SM BKN034 16/08 A3031 RMK AO2 T01630076 10164 20094